Terminal Aerodrome Forecast
Issued by NWS Topeka, KS

Home | Current Version | Previous Version | Graphics & Text | Print | Product List | Glossary On
Versions: 1 2 3 4 5 6 7 8 9 10 11 12 13 14 15 16 17
000
FTUS43 KTOP 251739
TAFTOP
TAF
KTOP 251739Z 2518/2618 14010KT P6SM FEW090 BKN200
     FM252100 13008KT P6SM VCTS SCT060CB
     FM260100 11007KT P6SM SCT060 BKN120
     FM261000 12006KT P6SM -SHRA VCTS BKN090CB=

USA.gov is the U.S. government's official web portal to all federal, state and local government web resources and services.